• Join FlightAware (Why Join?)
  • Login
  • US Flag 
06:28AM EDT


 

Airport Tracker/Info


-or-


 

Live Flight TrackerFlight Track Log ✈ UAL4108 ✈ 09-Apr-2013 ✈ KLIT - KIAH

Flight Track Log - Related Links

Times and Time Zones

All times are in EDT time to prevent confusion due to time zone crossing. See the UAL4108 flight status page for this flight to view local times or setup timezone preferences in your user account.

Time Position Orientation Groundspeed Altitude Reporting Facility
EDT Latitude Longitude Course Direction KTS MPH feet Rate Location/Type
07:11AM 34.7178 -92.2469 148° Southeast 167 192 700  Level Memphis Center
07:12AM 34.7008 -92.2542 199° South 173 199 1,800 2,880 Climbing Memphis Center
07:13AM 34.6531 -92.2481 174° South 173 199 4,800 2,700 Climbing Memphis Center
07:14AM 34.5783 -92.2261 166° South 204 235 8,400 2,400 Climbing Memphis Center
07:15AM 34.4298 -92.4333 190° South  Level Estimated
07:15AM 34.5200 -92.2125 169° South 214 246 10,600  Level Memphis Center
07:16AM 34.3549 -92.4852 193° South  Level Estimated
07:16AM 34.4553 -92.2236 188° South 219 252 12,900  Level Memphis Center
07:17AM 34.2819 -92.4293 148° Southeast  Level FlightAware Approximate
07:17AM 34.3861 -92.2372 189° South 241 277 15,000  Level Memphis Center
07:18AM 34.3150 -92.2483 187° South 253 291 17,200 1,920 Climbing Memphis Center
07:19AM 34.2397 -92.2617 188° South 264 304 18,900 1,620 Climbing Memphis Center
07:20AM 34.1581 -92.2775 189° South 283 326 20,500 1,500 Climbing Memphis Center
07:21AM 34.0889 -92.2908 189° South 299 344 22,000 1,560 Climbing Memphis Center
07:22AM 33.9864 -92.3136 190° South 305 351 23,700 1,320 Climbing Memphis Center
07:24AM 33.8267 -92.3431 189° South 333 383 25,800 1,320 Climbing Fort Worth Center
07:25AM 33.7231 -92.3592 187° South 356 410 27,400 1,080 Climbing Fort Worth Center
07:26AM 33.6278 -92.3769 189° South 361 415 28,000 300 Climbing Fort Worth Center
07:27AM 33.5158 -92.3958 188° South 383 441 28,000  Level Fort Worth Center
07:28AM 33.4019 -92.4172 189° South 402 463 28,000  Level Fort Worth Center
07:29AM 33.2861 -92.4414 190° South 423 487 28,000  Level Fort Worth Center
07:30AM 33.1597 -92.4633 188° South 445 512 28,000  Level Fort Worth Center
07:31AM 33.0375 -92.4850 188° South 450 518 28,000  Level Fort Worth Center
07:32AM 32.9150 -92.5042 187° South 450 518 28,000  Level Fort Worth Center
07:34AM 32.6156 -92.5617 189° South 439 505 28,000  Level Houston Center
07:35AM 32.4917 -92.5836 188° South 437 503 28,000  Level Houston Center
07:36AM 32.3717 -92.6064 189° South 437 503 28,000  Level Houston Center
07:37AM 32.2508 -92.6283 189° South 438 504 28,000  Level Houston Center
07:38AM 32.1306 -92.6483 188° South 437 503 28,000  Level Houston Center
07:39AM 32.0114 -92.6708 189° South 433 498 28,000  Level Houston Center
07:40AM 31.9100 -92.7400 210° Southwest 425 489 28,000  Level Houston Center
07:41AM 31.8178 -92.8272 219° Southwest 425 489 28,000  Level Houston Center
07:42AM 31.7267 -92.9158 220° Southwest 425 489 28,000  Level Houston Center
07:43AM 31.6342 -93.0047 219° Southwest 428 493 28,000  Level Houston Center
07:44AM 31.5414 -93.0906 218° Southwest 427 491 28,000  Level Houston Center
07:45AM 31.4508 -93.1814 221° Southwest 429 494 28,000  Level Houston Center
07:46AM 31.3467 -93.2819 220° Southwest 429 494 28,000  Level Houston Center
07:47AM 31.2472 -93.3750 219° Southwest 431 496 28,000  Level Houston Center
07:48AM 31.1550 -93.4628 219° Southwest 431 496 28,000  Level Houston Center
07:49AM 31.0625 -93.5508 219° Southwest 431 496 28,000  Level Houston Center
07:50AM 30.9700 -93.6383 219° Southwest 431 496 28,000 -360 Level Houston Center
07:51AM 30.8767 -93.7275 219° Southwest 434 499 27,300 -1,020 Descending Houston Center
07:53AM 30.7825 -93.8158 219° Southwest 438 504 26,000 -1,620 Descending Houston Center
07:54AM 30.6922 -93.9011 219° Southwest 427 491 24,100 -2,400 Descending Houston Center
07:55AM 30.5850 -94.0014 219° Southwest 419 482 21,200 -2,700 Descending Houston Center
07:55AM 30.5556 -94.0283 218° Southwest 408 470 20,400 -2,280 Descending Houston Center
07:56AM 30.5003 -94.0811 219° Southwest 406 467 18,900 -2,220 Descending Houston Center
07:56AM 30.4442 -94.1333 219° Southwest 373 429 17,500 -1,980 Descending Houston Center
07:57AM 30.4203 -94.1558 219° Southwest 383 441 16,900 -1,920 Descending Houston Center
07:57AM 30.3672 -94.2042 218° Southwest 362 417 15,600 -1,920 Descending Houston Center
07:58AM 30.3422 -94.2294 221° Southwest 369 425 15,000 -1,920 Descending Houston Center
07:58AM 30.2831 -94.2856 219° Southwest 371 427 13,700 -1,920 Descending Houston Center
07:59AM 30.2628 -94.3036 218° Southwest 368 423 13,100 -1,980 Descending Houston Center
07:59AM 30.2069 -94.3658 224° Southwest 360 414 11,700 -1,800 Descending Houston Center
08:00AM 30.1958 -94.3875 239° Southwest 363 418 11,300 -1,500 Descending Houston Center
08:00AM 30.1794 -94.4708 257° West 350 403 10,200 -1,320 Descending Houston Center
08:01AM 30.1747 -94.5044 261° West 354 407 10,000 -240 Descending Houston Center
08:01AM 30.1619 -94.5725 258° West 340 391 10,000  Level Houston Center
08:02AM 30.1558 -94.6106 259° West 343 395 10,000  Level Houston Center
08:02AM 30.1428 -94.6789 258° West 352 405 10,000  Level Houston Center
08:03AM 30.1369 -94.7219 261° West 353 406 10,000  Level Houston Center
08:03AM 30.1231 -94.7997 258° West 359 413 10,000  Level Houston Center
08:04AM 30.1178 -94.8353 260° West 361 415 10,000 -120 Level Houston Center
08:04AM 30.1064 -94.9131 260° West 285 328 9,900 -300 Descending Houston Center
08:05AM 30.1061 -94.9319 269° West 301 346 9,700 -1,500 Descending Houston Center
08:05AM 30.1061 -95.0000 270° West 266 306 8,400 -1,980 Descending Houston Center
08:06AM 30.1072 -95.0344 272° West 270 311 7,700 -1,800 Descending Houston Center
08:06AM 30.1061 -95.0869 269° West 260 299 6,600 -1,500 Descending Houston Center
08:07AM 30.1061 -95.1158 270° West 259 298 6,200 -540 Descending Houston Center
08:08AM 30.1061 -95.1789 270° West 264 304 6,000 -240 Descending Houston Center
08:08AM 30.1072 -95.2003 273° West 263 303 6,000  Level Houston Center
08:08AM 30.1072 -95.2583 270° West 267 307 6,000  Level Houston Center
08:09AM 30.1075 -95.2858 271° West 267 307 6,000  Level Houston Center
08:10AM 30.1078 -95.3550 270° West 266 306 6,000  Level Houston Center
08:10AM 30.1072 -95.3686 267° West 261 300 6,000  Level Houston Center
08:10AM 30.1067 -95.4131 269° West 219 252 6,000  Level Houston Center
08:11AM 30.1078 -95.4406 273° West 231 266 6,000  Level Houston Center
08:11AM 30.1067 -95.4831 268° West 221 254 6,000  Level Houston Center
08:12AM 30.1086 -95.5111 275° West 222 255 6,000  Level Houston Center
08:13AM 30.1061 -95.5700 267° West 222 255 6,000  Level Houston Center
08:13AM 30.1069 -95.5956 272° West 221 254 6,000  Level Houston Center
08:14AM 30.1056 -95.6328 268° West 218 251 6,000  Level Houston Center
08:14AM 30.1072 -95.6647 273° West 219 252 6,000  Level Houston Center
08:14AM 30.1069 -95.6978 269° West 219 252 6,000  Level Houston Center
08:15AM 30.1033 -95.7333 263° West 216 249 6,000  Level Houston Center
08:16AM 30.0742 -95.7525 210° Southwest 177 204 6,000  Level Houston Center
08:16AM 30.0597 -95.7519 178° South 181 208 6,000 -300 Level Houston Center
08:16AM 30.0406 -95.7514 179° South 148 170 5,800 -900 Descending Houston Center
08:17AM 30.0256 -95.7319 132° Southeast 170 196 5,100 -1,200 Descending Houston Center
08:17AM 30.0153 -95.7039 113° Southeast 177 204 4,600 -780 Descending Houston Center
08:18AM 30.0078 -95.6831 113° Southeast 167 192 4,300 -720 Descending Houston Center
08:18AM 29.9964 -95.6578 117° Southeast 159 183 3,900 -720 Descending Houston Center
08:19AM 29.9917 -95.6356 104° East 160 184 3,600 -660 Descending Houston Center
08:19AM 29.9919 -95.6078 89° East 175 201 3,300 -600 Descending Houston Center
08:20AM 29.9931 -95.5772 88° East 176 203 3,000 -300 Descending Houston Center
08:20AM 29.9933 -95.5519 89° East 178 205 3,000 -120 Level Houston Center
08:21AM 29.9928 -95.5219 91° East 175 201 2,900 -540 Descending Houston Center
08:21AM 29.9925 -95.4967 91° East 174 200 2,500 -1,320 Descending Houston Center